Terminal Aerodrome Forecast
Issued by NWS

Home | Current Version | Previous Version | Text Only | Print | Product List | Glossary On
Versions: 1 2 3 4 5 6 7 8 9 10 11 12 13 14 15
000
FTUS45 KTFX 250700 AAA
TAFCTB
TAF AMD
KCTB 250709Z 2507/2606 23014G22KT P6SM SKC
     FM251800 25028G35KT P6SM SCT180
     FM260300 25018KT P6SM SKC=

USA.gov is the U.S. government's official web portal to all federal, state and local government web resources and services.